Aviation Digital Data Service (ADDS)

Output produced by METARs form (0747 UTC 26 April 2018)
found at http://aviationweather.gov/adds/metars/
 
KYNG 260520Z 2606/2706 32007KT P6SM OVC010 
     TEMPO 2606/2609 OVC008 
     FM260900 27005KT 6SM BR OVC010 
     TEMPO 2609/2613 4SM BR OVC008 
     FM261300 29006KT P6SM BKN025 
     FM261500 30007KT P6SM SCT050 
     FM261700 30007KT P6SM SCT050 
     FM270100 01004KT P6SM BKN250